createdAt,value
2023-05-10T00:01:39.248Z,5.45
2023-05-10T00:03:35.202Z,5.03
2023-05-10T00:05:52.916Z,5.60
2023-05-10T00:07:52.012Z,5.80
2023-05-10T00:10:30.157Z,5.90
2023-05-10T00:12:36.818Z,5.60
2023-05-10T00:14:37.126Z,5.53
2023-05-10T00:16:51.514Z,5.07
2023-05-10T00:19:13.035Z,5.30
2023-05-10T00:21:09.867Z,5.25
2023-05-10T00:23:07.499Z,5.88
2023-05-10T00:25:03.440Z,5.43
2023-05-10T00:27:00.236Z,5.50
2023-05-10T00:29:06.843Z,5.60
2023-05-10T00:31:03.571Z,5.65
2023-05-10T00:33:06.894Z,5.35
2023-05-10T00:35:14.992Z,5.45
2023-05-10T00:37:19.012Z,5.80
2023-05-10T00:39:14.703Z,5.20
2023-05-10T00:41:10.535Z,5.72
2023-05-10T00:43:06.086Z,6.03
2023-05-10T00:45:01.552Z,6.03
2023-05-10T00:46:56.877Z,5.20
2023-05-10T00:48:56.131Z,5.68
2023-05-10T00:50:51.879Z,6.10
2023-05-10T00:52:47.927Z,5.57
2023-05-10T00:54:43.651Z,5.38
2023-05-10T00:56:49.524Z,5.80
2023-05-10T00:58:47.057Z,5.60
2023-05-10T01:00:45.975Z,6.18
2023-05-10T01:02:45.087Z,5.55
2023-05-10T01:04:55.410Z,5.80
2023-05-10T01:06:54.398Z,5.80
2023-05-10T01:08:50.599Z,5.97
2023-05-10T01:10:47.622Z,5.95
2023-05-10T01:12:46.943Z,5.50
2023-05-10T01:14:43.298Z,6.43
2023-05-10T01:16:42.981Z,6.00
2023-05-10T01:18:40.815Z,6.03
2023-05-10T01:20:45.940Z,6.45
2023-05-10T01:23:30.068Z,7.18
2023-05-10T01:25:43.949Z,6.60
2023-05-10T01:27:59.651Z,5.95
2023-05-10T01:30:16.146Z,6.00
2023-05-10T01:32:25.532Z,6.00
2023-05-10T01:34:30.800Z,6.40
2023-05-10T01:36:33.419Z,6.25
2023-05-10T01:38:37.466Z,6.60
2023-05-10T01:40:42.309Z,6.05
2023-05-10T01:43:01.448Z,6.18
2023-05-10T01:45:04.118Z,6.28
2023-05-10T01:47:10.075Z,6.20
2023-05-10T01:49:33.524Z,5.80
2023-05-10T01:51:39.703Z,6.03
2023-05-10T01:53:47.267Z,5.88
2023-05-10T01:56:28.677Z,5.95
2023-05-10T01:58:31.543Z,6.45
2023-05-10T02:00:28.374Z,5.93
2023-05-10T02:02:25.399Z,6.10
2023-05-10T02:04:27.570Z,6.50
2023-05-10T02:06:24.864Z,5.88
2023-05-10T02:08:22.174Z,5.80
2023-05-10T02:10:18.636Z,6.30
2023-05-10T02:12:18.068Z,6.00
2023-05-10T02:14:20.866Z,6.00
2023-05-10T02:16:18.595Z,6.07
2023-05-10T02:18:16.683Z,6.35
2023-05-10T02:20:17.092Z,6.20
2023-05-10T02:22:14.282Z,5.60
2023-05-10T02:24:12.967Z,6.60
2023-05-10T02:26:10.765Z,5.60
2023-05-10T02:28:13.204Z,6.10
2023-05-10T02:30:13.984Z,6.17
2023-05-10T02:32:10.697Z,6.00
2023-05-10T02:34:08.189Z,5.97
2023-05-10T02:36:07.284Z,6.17
2023-05-10T02:38:03.813Z,6.10
2023-05-10T02:40:07.510Z,6.00
2023-05-10T02:42:14.545Z,5.70
2023-05-10T02:44:26.818Z,6.37
2023-05-10T02:46:41.610Z,6.07
2023-05-10T02:48:47.385Z,5.67
2023-05-10T02:51:08.006Z,5.80
2023-05-10T02:53:21.131Z,5.43
2023-05-10T03:01:00.465Z,6.20
2023-05-10T03:03:04.181Z,5.77
2023-05-10T03:05:19.512Z,5.53
2023-05-10T03:07:29.291Z,5.40
2023-05-10T03:09:32.555Z,5.47
2023-05-10T03:12:21.940Z,5.93
2023-05-10T03:14:56.125Z,5.30
2023-05-10T03:17:21.532Z,5.90
2023-05-10T03:19:49.056Z,5.47
2023-05-10T03:22:17.502Z,5.70
2023-05-10T03:24:31.279Z,5.13
2023-05-10T03:26:53.909Z,5.60
2023-05-10T03:29:07.549Z,6.13
2023-05-10T03:31:21.975Z,5.33
2023-05-10T03:33:18.044Z,5.60
2023-05-10T03:35:16.908Z,5.53
2023-05-10T03:37:12.638Z,5.33
2023-05-10T03:39:11.768Z,5.50
2023-05-10T03:41:07.475Z,5.47
2023-05-10T03:43:09.513Z,5.67
2023-05-10T03:45:06.537Z,5.37
2023-05-10T03:47:06.395Z,5.90
2023-05-10T03:49:05.403Z,5.40
2023-05-10T03:51:01.387Z,5.10
2023-05-10T03:52:57.456Z,5.33
2023-05-10T03:54:54.236Z,5.30
2023-05-10T03:56:49.777Z,5.20
2023-05-10T03:58:48.333Z,5.57
2023-05-10T04:00:47.671Z,5.17
2023-05-10T04:02:46.410Z,5.30
2023-05-10T04:04:42.243Z,5.37
2023-05-10T04:06:51.827Z,5.03
2023-05-10T04:08:47.757Z,5.23
2023-05-10T04:10:46.991Z,5.53
2023-05-10T04:12:42.494Z,5.03
2023-05-10T04:14:40.929Z,5.20
2023-05-10T04:16:36.224Z,5.00
2023-05-10T04:18:31.907Z,5.17
2023-05-10T04:20:27.108Z,4.90
2023-05-10T04:22:22.745Z,5.10
2023-05-10T04:24:18.094Z,5.07
2023-05-10T04:26:13.789Z,5.30
2023-05-10T04:28:09.090Z,5.00
2023-05-10T04:30:08.572Z,4.70
2023-05-10T04:32:04.770Z,4.90
2023-05-10T04:34:00.390Z,5.00
2023-05-10T04:35:55.436Z,5.43
2023-05-10T04:37:50.963Z,6.03
2023-05-10T04:39:46.058Z,4.47
2023-05-10T04:41:41.992Z,5.00
2023-05-10T04:43:37.489Z,4.77
2023-05-10T04:45:35.719Z,4.30
2023-05-10T04:47:30.867Z,5.53
2023-05-10T04:49:26.375Z,4.80
2023-05-10T04:51:21.636Z,4.87
2023-05-10T04:53:17.347Z,4.70
2023-05-10T04:55:13.043Z,4.20
2023-05-10T04:57:08.589Z,5.07
2023-05-10T04:59:03.789Z,4.60
2023-05-10T05:01:11.730Z,4.30
2023-05-10T05:03:08.357Z,4.53
2023-05-10T05:05:03.927Z,4.40
2023-05-10T05:06:58.988Z,4.03
2023-05-10T05:08:57.027Z,4.43
2023-05-10T05:10:52.439Z,4.43
2023-05-10T05:12:48.618Z,4.70
2023-05-10T05:14:44.264Z,4.53
2023-05-10T05:16:42.378Z,4.13
2023-05-10T05:18:37.487Z,4.03
2023-05-10T05:20:36.097Z,4.33
2023-05-10T05:22:31.149Z,4.37
2023-05-10T05:24:26.838Z,4.20
2023-05-10T05:26:22.556Z,4.40
2023-05-10T05:28:21.590Z,4.33
2023-05-10T05:30:16.976Z,4.00
2023-05-10T05:32:15.252Z,4.30
2023-05-10T05:34:10.353Z,4.17
2023-05-10T05:36:06.860Z,4.33
2023-05-10T05:38:02.137Z,4.73
2023-05-10T05:39:57.960Z,3.93
2023-05-10T05:41:53.132Z,4.07
2023-05-10T05:43:48.465Z,3.87
2023-05-10T05:45:43.559Z,4.27
2023-05-10T05:47:42.850Z,4.30
2023-05-10T05:49:38.277Z,4.40
2023-05-10T05:51:35.882Z,3.70
2023-05-10T05:53:32.660Z,3.80
2023-05-10T05:55:28.605Z,3.93
2023-05-10T05:57:24.108Z,4.13
2023-05-10T05:59:19.886Z,4.37
2023-05-10T06:01:15.279Z,3.67
2023-05-10T06:03:13.404Z,4.33
2023-05-10T06:05:09.765Z,3.90
2023-05-10T06:07:05.132Z,4.00
2023-05-10T06:09:00.219Z,3.40
2023-05-10T06:10:55.683Z,3.50
2023-05-10T06:12:50.820Z,4.20
2023-05-10T06:14:46.373Z,3.57
2023-05-10T06:16:41.721Z,3.97
2023-05-10T06:18:40.067Z,3.40
2023-05-10T06:20:35.249Z,3.67
2023-05-10T06:22:30.813Z,3.73
2023-05-10T06:24:25.814Z,3.37
2023-05-10T06:26:22.041Z,3.80
2023-05-10T06:28:17.333Z,3.73
2023-05-10T06:30:15.875Z,3.27
2023-05-10T06:32:11.090Z,3.43
2023-05-10T06:34:09.347Z,3.33
2023-05-10T06:36:05.814Z,3.70
2023-05-10T06:38:01.395Z,3.27
2023-05-10T06:39:56.491Z,3.13
2023-05-10T06:41:52.066Z,3.17
2023-05-10T06:43:47.213Z,3.20
2023-05-10T06:45:42.812Z,3.70
2023-05-10T06:47:39.144Z,3.30
2023-05-10T06:49:38.205Z,3.30
2023-05-10T06:51:33.997Z,3.77
2023-05-10T06:53:29.415Z,3.63
2023-05-10T06:55:24.775Z,3.37
2023-05-10T06:57:31.162Z,3.00
2023-05-10T06:59:27.302Z,3.20
2023-05-10T07:01:23.007Z,3.60
2023-05-10T07:03:18.333Z,3.27
2023-05-10T07:05:16.660Z,3.30
2023-05-10T07:07:12.317Z,3.00
2023-05-10T07:09:08.821Z,3.27
2023-05-10T07:11:05.142Z,2.70
2023-05-10T07:13:01.608Z,3.57
2023-05-10T07:14:56.831Z,2.87
2023-05-10T07:16:52.278Z,3.37
2023-05-10T07:18:47.404Z,3.37
2023-05-10T07:20:45.591Z,2.70
2023-05-10T07:22:46.916Z,2.97
2023-05-10T07:25:27.537Z,2.47
2023-05-10T07:27:26.702Z,2.80
2023-05-10T07:29:22.167Z,2.92
2023-05-10T07:31:17.386Z,2.90
2023-05-10T07:33:14.071Z,2.73
2023-05-10T07:35:09.764Z,3.05
2023-05-10T07:37:08.542Z,3.30
2023-05-10T07:39:03.630Z,3.05
2023-05-10T07:40:59.181Z,3.03
2023-05-10T07:42:54.316Z,2.78
2023-05-10T07:44:49.813Z,2.97
2023-05-10T07:46:44.850Z,3.00
2023-05-10T07:48:40.728Z,2.90
2023-05-10T07:50:35.876Z,3.10
2023-05-10T07:55:47.403Z,3.40
2023-05-10T07:57:43.499Z,2.67
2023-05-10T07:59:38.962Z,2.70
2023-05-10T08:01:49.117Z,2.80
2023-05-10T08:11:05.686Z,2.85
2023-05-10T08:13:48.494Z,2.78
2023-05-10T08:16:18.698Z,2.90
2023-05-10T08:18:42.276Z,2.60
2023-05-10T08:21:02.969Z,2.85
2023-05-10T08:23:41.433Z,3.28
2023-05-10T08:25:43.916Z,3.08
2023-05-10T08:27:42.429Z,3.15
2023-05-10T08:29:49.056Z,2.78
2023-05-10T08:31:47.492Z,3.95
2023-05-10T08:33:44.585Z,2.80
2023-05-10T08:35:41.233Z,3.17
2023-05-10T08:37:37.104Z,3.40
2023-05-10T08:39:38.649Z,3.13
2023-05-10T08:41:46.232Z,2.97
2023-05-10T08:44:02.990Z,2.65
2023-05-10T08:48:50.429Z,2.90
2023-05-10T08:51:20.183Z,2.80
2023-05-10T08:54:10.421Z,2.92
2023-05-10T08:57:07.117Z,2.85
2023-05-10T09:00:02.845Z,2.85
2023-05-10T09:02:02.668Z,2.78
2023-05-10T09:04:13.310Z,3.13
2023-05-10T09:06:15.244Z,2.97
2023-05-10T09:08:14.244Z,2.80
2023-05-10T09:10:19.269Z,2.67
2023-05-10T09:12:17.282Z,3.63
2023-05-10T09:14:14.733Z,2.63
2023-05-10T09:16:21.663Z,2.72
2023-05-10T09:18:21.305Z,3.83
2023-05-10T09:20:18.797Z,2.85
2023-05-10T09:22:17.551Z,2.60
2023-05-10T09:24:13.454Z,2.60
2023-05-10T09:26:10.391Z,2.67
2023-05-10T09:28:06.418Z,2.85
2023-05-10T09:30:05.350Z,3.03
2023-05-10T09:32:13.846Z,2.60
2023-05-10T09:34:14.996Z,3.83
2023-05-10T09:36:13.267Z,3.00
2023-05-10T09:38:09.827Z,2.80
2023-05-10T09:40:08.649Z,3.15
2023-05-10T09:42:40.537Z,2.97
2023-05-10T09:45:22.784Z,3.97
2023-05-10T09:47:32.953Z,2.97
2023-05-10T09:49:47.643Z,2.95
2023-05-10T09:52:10.493Z,2.88
2023-05-10T09:54:26.695Z,2.97
2023-05-10T09:59:23.853Z,2.47
2023-05-10T10:05:57.438Z,3.08
2023-05-10T10:15:08.664Z,2.70
2023-05-10T10:17:08.770Z,2.88
2023-05-10T10:19:05.147Z,2.47
2023-05-10T10:21:01.201Z,2.70
2023-05-10T10:22:56.821Z,3.03
2023-05-10T10:24:56.493Z,2.60
2023-05-10T10:26:56.313Z,2.40
2023-05-10T10:29:05.448Z,2.60
2023-05-10T10:31:07.669Z,2.75
2023-05-10T10:33:28.309Z,2.80
2023-05-10T10:35:24.926Z,2.70
2023-05-10T10:37:21.656Z,2.58
2023-05-10T10:39:21.671Z,2.63
2023-05-10T10:41:47.358Z,2.60
2023-05-10T10:44:04.044Z,3.10
2023-05-10T10:46:19.461Z,2.78
2023-05-10T10:48:28.163Z,2.30
2023-05-10T10:50:39.914Z,2.83
2023-05-10T10:53:01.008Z,2.50
2023-05-10T10:55:18.691Z,3.88
2023-05-10T10:57:46.893Z,2.80
2023-05-10T11:00:02.624Z,2.70
2023-05-10T11:02:06.748Z,2.28
2023-05-10T11:04:22.090Z,2.45
2023-05-10T11:06:59.240Z,2.17
2023-05-10T12:03:17.043Z,2.20
2023-05-10T12:05:18.896Z,2.47
2023-05-10T12:07:14.109Z,2.60
2023-05-10T12:09:44.184Z,2.30
2023-05-10T12:11:44.307Z,2.53
2023-05-10T12:21:12.011Z,2.92
2023-05-10T14:36:08.125Z,1.98
2023-05-10T14:38:33.694Z,1.80
2023-05-10T14:40:50.057Z,1.88
2023-05-10T14:46:52.043Z,2.30
2023-05-10T14:49:03.720Z,2.40
2023-05-10T14:51:01.381Z,2.00
2023-05-10T14:52:56.587Z,1.98
2023-05-10T14:54:54.770Z,2.25
2023-05-10T14:56:51.065Z,2.10
2023-05-10T14:58:58.983Z,1.80
2023-05-10T15:00:54.630Z,2.15
2023-05-10T15:02:51.188Z,2.00
2023-05-10T15:04:48.524Z,2.30
2023-05-10T15:06:44.905Z,2.25
2023-05-10T15:08:40.253Z,2.03
2023-05-10T15:10:38.924Z,2.05
2023-05-10T15:12:34.217Z,2.20
2023-05-10T15:14:31.494Z,2.00
2023-05-10T15:16:26.797Z,2.00
2023-05-10T15:18:25.000Z,1.92
2023-05-10T15:20:20.448Z,2.03
2023-05-10T15:22:16.369Z,1.98
2023-05-10T15:24:12.429Z,2.17
2023-05-10T15:26:13.866Z,1.90
2023-05-10T15:28:14.349Z,2.20
2023-05-10T15:30:14.572Z,1.90
2023-05-10T15:32:14.165Z,2.45
2023-05-10T15:34:09.749Z,2.17
2023-05-10T15:36:05.460Z,2.15
2023-05-10T15:38:06.168Z,2.20
2023-05-10T15:40:06.834Z,2.10
2023-05-10T15:42:13.267Z,2.03
2023-05-10T15:44:15.145Z,1.90
2023-05-10T15:46:11.742Z,1.88
2023-05-10T15:48:12.926Z,2.13
2023-05-10T15:50:12.467Z,1.80
2023-05-10T15:52:25.476Z,2.08
2023-05-10T15:56:55.055Z,2.40
2023-05-10T15:58:53.076Z,2.10
2023-05-10T16:00:48.291Z,2.15
2023-05-10T16:02:43.997Z,2.40
2023-05-10T16:04:39.377Z,2.20
2023-05-10T16:06:39.461Z,2.10
2023-05-10T16:08:42.033Z,2.40
2023-05-10T16:10:49.890Z,1.95
2023-05-10T16:12:45.578Z,2.00
2023-05-10T16:14:44.313Z,1.83
2023-05-10T16:16:43.429Z,1.98
2023-05-10T16:18:43.204Z,2.22
2023-05-10T16:20:48.088Z,2.30
2023-05-10T16:23:04.055Z,2.42
2023-05-10T16:25:24.688Z,2.60
2023-05-10T16:27:22.434Z,3.67
2023-05-10T16:29:32.141Z,3.83
2023-05-10T16:31:32.688Z,3.83
2023-05-10T16:33:37.565Z,3.70
2023-05-10T16:35:33.493Z,4.07
2023-05-10T16:37:33.609Z,4.18
2023-05-10T16:39:29.345Z,4.53
2023-05-10T16:41:24.841Z,4.57
2023-05-10T16:43:26.074Z,4.40
2023-05-10T16:45:21.842Z,4.55
2023-05-10T16:47:20.417Z,4.20
2023-05-10T16:49:15.908Z,4.20
2023-05-10T16:51:12.544Z,4.30
2023-05-10T16:53:08.097Z,4.25
2023-05-10T16:55:04.544Z,4.20
2023-05-10T16:57:00.144Z,4.07
2023-05-10T16:58:55.995Z,4.85
2023-05-10T17:00:51.445Z,4.10
2023-05-10T17:02:49.622Z,4.80
2023-05-10T17:04:45.558Z,4.60
2023-05-10T17:06:45.689Z,4.30
2023-05-10T17:11:57.613Z,4.95
2023-05-10T17:13:59.984Z,5.00
2023-05-10T17:16:07.779Z,4.53
2023-05-10T17:18:13.381Z,4.15
2023-05-10T17:20:15.082Z,4.22
2023-05-10T17:22:14.899Z,5.18
2023-05-10T17:24:14.966Z,4.65
2023-05-10T17:26:17.350Z,4.63
2023-05-10T17:28:19.592Z,4.30
2023-05-10T17:30:27.683Z,4.30
2023-05-10T17:32:25.908Z,4.15
2023-05-10T17:35:21.760Z,4.82
2023-05-10T17:42:49.680Z,4.43
2023-05-10T17:47:48.434Z,4.40
2023-05-10T17:50:38.248Z,4.65
2023-05-10T17:53:00.184Z,4.63
2023-05-10T17:56:02.799Z,4.25
2023-05-10T18:15:01.455Z,4.13
2023-05-10T18:17:00.899Z,4.22
2023-05-10T18:18:59.560Z,4.07
2023-05-10T18:21:01.910Z,4.88
2023-05-10T18:23:01.766Z,4.25
2023-05-10T18:24:57.593Z,4.13
2023-05-10T18:26:55.944Z,4.30
2023-05-10T18:28:51.979Z,4.55
2023-05-10T18:30:49.739Z,4.00
2023-05-10T18:32:45.378Z,4.82
2023-05-10T18:34:40.673Z,4.35
2023-05-10T18:36:36.594Z,4.25
2023-05-10T18:38:41.016Z,4.57
2023-05-10T18:40:37.104Z,4.35
2023-05-10T18:42:32.742Z,5.32
2023-05-10T18:44:31.554Z,5.35
2023-05-10T18:46:32.396Z,5.35
2023-05-10T18:48:30.616Z,4.75
2023-05-10T18:50:28.991Z,4.22
2023-05-10T18:52:30.207Z,3.97
2023-05-10T18:54:25.727Z,4.80
2023-05-10T18:56:25.235Z,4.57
2023-05-10T18:58:34.174Z,5.00
2023-05-10T19:00:32.727Z,4.30
2023-05-10T19:02:30.792Z,4.68
2023-05-10T19:04:26.593Z,4.60
2023-05-10T19:06:21.897Z,4.70
2023-05-10T19:08:18.257Z,4.35
2023-05-10T19:10:17.135Z,4.72
2023-05-10T19:12:18.746Z,4.72
2023-05-10T19:17:59.974Z,4.82
2023-05-10T19:20:05.836Z,5.50
2023-05-10T19:23:09.276Z,5.80
2023-05-10T19:25:45.882Z,5.03
2023-05-10T19:28:00.045Z,17.50
2023-05-10T19:30:34.724Z,19.60
2023-05-10T19:32:45.866Z,12.10
2023-05-10T19:35:13.924Z,6.15
2023-05-10T19:37:52.716Z,6.32
2023-05-10T19:39:58.896Z,5.75
2023-05-10T19:42:14.583Z,5.45
2023-05-10T19:50:20.921Z,5.50
2023-05-10T19:52:30.984Z,5.70
2023-05-10T19:57:16.242Z,7.50
2023-05-10T19:59:16.353Z,6.35
2023-05-10T20:01:13.530Z,6.88
2023-05-10T20:03:10.974Z,6.07
2023-05-10T20:05:18.320Z,6.25
2023-05-10T20:07:18.557Z,5.70
2023-05-10T20:09:31.712Z,5.70
2023-05-10T20:11:56.280Z,6.70
2023-05-10T20:14:47.299Z,5.72
2023-05-10T20:17:17.698Z,5.82
2023-05-10T20:19:47.135Z,6.25
2023-05-10T20:33:38.469Z,8.48
2023-05-10T20:44:46.203Z,7.70
2023-05-10T20:51:35.274Z,6.72
2023-05-10T20:54:20.329Z,7.20
2023-05-10T20:56:39.371Z,7.13
2023-05-10T20:58:58.351Z,6.65
2023-05-10T21:01:40.974Z,8.88
2023-05-10T21:03:55.672Z,7.90
2023-05-10T21:06:27.328Z,8.25
2023-05-10T21:08:54.508Z,8.20
2023-05-10T21:16:20.918Z,6.95
2023-05-10T21:26:14.100Z,7.88
2023-05-10T21:29:12.778Z,7.45
2023-05-10T21:32:00.782Z,8.20
2023-05-10T21:38:06.394Z,7.93
2023-05-10T21:41:05.365Z,8.63
2023-05-10T21:54:32.541Z,7.85
2023-05-10T22:01:09.015Z,8.05
2023-05-10T22:11:03.891Z,17.38
2023-05-10T22:14:00.707Z,11.32
2023-05-10T22:17:09.901Z,8.57
2023-05-10T22:27:00.421Z,8.32
2023-05-10T22:30:00.500Z,7.97
2023-05-10T22:32:27.113Z,8.23
2023-05-10T22:35:09.094Z,8.27
2023-05-10T22:37:33.423Z,8.50
2023-05-10T22:40:18.892Z,7.93
2023-05-10T22:42:55.262Z,7.78
2023-05-10T22:51:18.267Z,10.05
2023-05-10T22:54:06.414Z,7.75
2023-05-10T22:55:54.451Z,7.72
2023-05-10T22:57:57.493Z,7.45
2023-05-10T23:00:50.610Z,7.70
2023-05-10T23:03:01.134Z,8.50
2023-05-10T23:05:18.914Z,8.32
2023-05-10T23:07:19.061Z,7.03
2023-05-10T23:09:23.520Z,6.72
2023-05-10T23:11:29.084Z,7.18
2023-05-10T23:13:33.080Z,7.93
2023-05-10T23:15:34.778Z,8.13
2023-05-10T23:17:30.517Z,7.10
2023-05-10T23:19:26.668Z,7.40
2023-05-10T23:21:22.747Z,7.47
2023-05-10T23:23:23.091Z,7.30
2023-05-10T23:25:19.095Z,7.93
2023-05-10T23:27:23.444Z,7.40
2023-05-10T23:29:32.983Z,7.25
2023-05-10T23:31:46.063Z,7.45
2023-05-10T23:33:41.382Z,7.57
2023-05-10T23:35:37.268Z,7.72
2023-05-10T23:37:33.041Z,7.60
2023-05-10T23:39:33.072Z,7.50
2023-05-10T23:41:33.938Z,7.60
2023-05-10T23:43:34.192Z,7.65
2023-05-10T23:45:31.898Z,8.13
2023-05-10T23:47:32.466Z,7.68
2023-05-10T23:49:33.934Z,8.48
2023-05-10T23:51:37.495Z,7.35
2023-05-10T23:56:47.416Z,8.75
2023-05-10T23:58:44.405Z,8.43
